Accueil
METAR-TAF:

METAR-TAF

Aéroports :

Eastmain, Québec, Canada

latitude: 52-14N, longitude: 078-31W, altitude: 7 m

Observation

Le bulletin a été fait il y a 5 heures et 15 minutes, à 21:00 UTC
Vent 7 kt de sud-ouest
Température -13°C
Humidité 66%
Pression 1036 hPa
Visibilité: 24.1 km
Ciel clair

METAR: CZEM 222100Z 22007KT 15SM SKC M13/M18 A3058 RMK LAST STFD OBS/NEXT 231400 UTC SLP358

Heure: 21:15 (02:15 UTC)


TAF: absent

Observations et prévisions météorologiques de plus de 4000 aéroports (messages METAR et TAF).

Les stations disponibles sont représentées par des disques jaunes et rouges sur la carte.

Passer la souris dessus pour voir le nom de la station.

Cliquer dessus pour voir les observations et prévisions météorologiques.

Pour changer de carte: cliquez sur les boutons verts avec une croix noire pour zoomer, sur le bouton vert avec un tiret pour effectuer un zoom arrière, ou sur les flèches vertes pour les cartes adjacentes.


METAR-TAF: